Parmelee, South Dakota
Current Conditions -  °F | °C
As of 1:52 PM on Tuesday 21 Oct 2014 (Local Time) from KVTN Reporting Station
Clear Clear  
Wind Chill: 78°   Ceiling: Unl
Heat Index: 78°   Visibility: 10mi
Dew Point: 46°   Wind: 21mph
Humidity: 32%   Direction: 180°S
Pressure: 29.88"   Gusts: 32mph
Location:  43.32°N, 101.03°W
Report Text: KVTN 211952Z AUTO 18018G28KT 10SM CLR 26/08 A2988 RMK AO2 PK WND 17032/1902 SLP104 T02560078
Loading
Personal Weather Stations






























Interactive Weather Map
Tropical Storm Tracking
New forecast layout! Learn more

10-Day Weather Forecast

Advertisements
Track Severe Weather on mobile